地図

経路データ

SID SEASON NUMBER BASIN SUBBASIN NAME ISO_TIME NATURE LAT LON WMO_WIND WMO_PRES WMO_AGENCY TRACK_TYPE DIST2LAND LANDFALL IFLAG USA_AGENCY USA_ATCF_ID USA_LAT USA_LON USA_RECORD USA_STATUS USA_WIND USA_PRES USA_SSHS USA_R34_NE USA_R34_SE USA_R34_SW USA_R34_NW USA_R50_NE USA_R50_SE USA_R50_SW USA_R50_NW USA_R64_NE USA_R64_SE USA_R64_SW USA_R64_NW USA_POCI USA_ROCI USA_RMW USA_EYE TOKYO_LAT TOKYO_LON TOKYO_GRADE TOKYO_WIND TOKYO_PRES TOKYO_R50_DIR TOKYO_R50_LONG TOKYO_R50_SHORT TOKYO_R30_DIR TOKYO_R30_LONG TOKYO_R30_SHORT TOKYO_LAND CMA_LAT CMA_LON CMA_CAT CMA_WIND CMA_PRES HKO_LAT HKO_LON HKO_CAT HKO_WIND HKO_PRES NEWDELHI_LAT NEWDELHI_LON NEWDELHI_GRADE NEWDELHI_WIND NEWDELHI_PRES NEWDELHI_CI NEWDELHI_DP NEWDELHI_POCI REUNION_LAT REUNION_LON REUNION_TYPE REUNION_WIND REUNION_PRES REUNION_TNUM REUNION_CI REUNION_RMW REUNION_R34_NE REUNION_R34_SE REUNION_R34_SW REUNION_R34_NW REUNION_R50_NE REUNION_R50_SE REUNION_R50_SW REUNION_R50_NW REUNION_R64_NE REUNION_R64_SE REUNION_R64_SW REUNION_R64_NW BOM_LAT BOM_LON BOM_TYPE BOM_WIND BOM_PRES BOM_TNUM BOM_CI BOM_RMW BOM_R34_NE BOM_R34_SE BOM_R34_SW BOM_R34_NW BOM_R50_NE BOM_R50_SE BOM_R50_SW BOM_R50_NW BOM_R64_NE BOM_R64_SE BOM_R64_SW BOM_R64_NW BOM_ROCI BOM_POCI BOM_EYE BOM_POS_METHOD BOM_PRES_METHOD NADI_LAT NADI_LON NADI_CAT NADI_WIND NADI_PRES WELLINGTON_LAT WELLINGTON_LON WELLINGTON_WIND WELLINGTON_PRES DS824_LAT DS824_LON DS824_STAGE DS824_WIND DS824_PRES TD9636_LAT TD9636_LON TD9636_STAGE TD9636_WIND TD9636_PRES TD9635_LAT TD9635_LON TD9635_WIND TD9635_PRES TD9635_ROCI NEUMANN_LAT NEUMANN_LON NEUMANN_CLASS NEUMANN_WIND NEUMANN_PRES MLC_LAT MLC_LON MLC_CLASS MLC_WIND MLC_PRES USA_GUST BOM_GUST BOM_GUST_PER REUNION_GUST REUNION_GUST_PER USA_SEAHGT USA_SEARAD_NE USA_SEARAD_SE USA_SEARAD_SW USA_SEARAD_NW STORM_SPEED STORM_DIR
1877192N21090 1877 16 NI BB NOT_NAMED 1877-07-11 00:00:00 TS 20.8000 89.7000 main 105 102 _________O____ -1 20.8000 89.7000 TC 30 2 270
1877192N21090 1877 16 NI BB NOT_NAMED 1877-07-11 03:00:00 TS 20.8000 89.6000 main 102 98 _________PO___ -1 20.8000 89.5500 TC 30 20.8000 89.7000 1 2 270
1877192N21090 1877 16 NI BB NOT_NAMED 1877-07-11 06:00:00 TS 20.7995 89.4507 main 98 91 _________OP___ -1 20.8000 89.4000 TC 30 20.7989 89.5267 1 3 270
1877192N21090 1877 16 NI BB NOT_NAMED 1877-07-11 09:00:00 TS 20.7992 89.2983 main 91 90 _________PP___ -1 20.8000 89.2500 TC 30 20.7981 89.3627 1 3 270
1877192N21090 1877 16 NI BB NOT_NAMED 1877-07-11 12:00:00 TS 20.7991 89.1587 main 90 89 _________OP___ -1 20.8000 89.1000 TC 30 20.7983 89.2174 1 3 269
1877192N21090 1877 16 NI BB NOT_NAMED 1877-07-11 15:00:00 TS 20.7962 89.0250 main 89 89 _________PO___ -1 20.7925 88.9500 TC 30 20.8000 89.1000 1 2 271
1877192N21090 1877 16 NI BB NOT_NAMED 1877-07-11 18:00:00 TS 20.8025 88.9053 main 89 89 _________OP___ -1 20.8000 88.8000 TC 30 20.8049 89.0106 1 2 279
1877192N21090 1877 16 NI BB NOT_NAMED 1877-07-11 21:00:00 TS 20.8268 88.8109 main 90 78 _________PP___ -1 20.8347 88.7099 TC 30 20.8188 88.9120 1 3 286
1877192N21090 1877 16 NI BB NOT_NAMED 1877-07-12 00:00:00 TS 20.8742 88.6287 main 78 78 _________OP___ -1 20.9000 88.5000 TC 30 20.8484 88.7573 1 5 283
1877192N21090 1877 16 NI BB NOT_NAMED 1877-07-12 03:00:00 TS 20.9464 88.2513 main 78 67 _________PO___ -1 20.9928 88.0026 TC 30 20.9000 88.5000 1 8 281
1877192N21090 1877 16 NI BB NOT_NAMED 1877-07-12 06:00:00 TS 21.0396 87.7395 main 73 45 _________OP___ -1 21.1000 87.4000 TC 30 20.9792 88.0790 1 10 281
1877192N21090 1877 16 NI BB NOT_NAMED 1877-07-12 09:00:00 TS 21.1392 87.2239 main 38 0 _________PP___ -1 21.1998 86.8924 TC 30 21.0785 87.5553 1 10 282
1877192N21090 1877 16 NI BB NOT_NAMED 1877-07-12 12:00:00 TS 21.2442 86.6895 main 0 0 _________OP___ -1 21.3000 86.4000 TC 30 21.1885 86.9789 1 10 282
1877192N21090 1877 16 NI BB NOT_NAMED 1877-07-12 15:00:00 TS 21.3499 86.1500 main 0 0 _________PO___ -1 21.3998 85.8999 TC 30 21.3000 86.4000 1 10 282
1877192N21090 1877 16 NI BB NOT_NAMED 1877-07-12 18:00:00 TS 21.4457 85.6422 main 0 0 _________OP___ -1 21.5000 85.4000 TC 30 21.3915 85.8843 1 10 281
1877192N21090 1877 16 NI BB NOT_NAMED 1877-07-12 21:00:00 TS 21.5385 85.1347 main 0 0 _________PP___ -1 21.5924 84.8924 TC 30 21.4845 85.3770 1 10 282
1877192N21090 1877 16 NI BB NOT_NAMED 1877-07-13 00:00:00 TS 21.6426 84.6406 main 0 0 _________OP___ -1 21.7000 84.4000 TC 30 21.5853 84.8812 1 9 285
1877192N21090 1877 16 NI BB NOT_NAMED 1877-07-13 03:00:00 TS 21.7712 84.1712 main 0 0 _________PO___ -1 21.8423 83.9425 TC 30 21.7000 84.4000 1 9 288
1877192N21090 1877 16 NI BB NOT_NAMED 1877-07-13 06:00:00 TS 21.9196 83.7178 main 0 0 _________OP___ -1 22.0000 83.5000 TC 30 21.8391 83.9356 1 9 290
1877192N21090 1877 16 NI BB NOT_NAMED 1877-07-13 09:00:00 TS 22.0708 83.2674 main 0 0 _________PP___ -1 22.1499 83.0499 TC 30 21.9918 83.4850 1 9 290
1877192N21090 1877 16 NI BB NOT_NAMED 1877-07-13 12:00:00 TS 22.2243 82.8209 main 0 0 _________OP___ -1 22.3000 82.6000 TC 30 22.1485 83.0418 1 9 290
1877192N21090 1877 16 NI BB NOT_NAMED 1877-07-13 15:00:00 TS 22.3787 82.3750 main 0 0 _________PO___ -1 22.4574 82.1500 TC 30 22.3000 82.6000 1 9 290
1877192N21090 1877 16 NI BB NOT_NAMED 1877-07-13 18:00:00 TS 22.5154 81.9470 main 0 0 _________OP___ -1 22.6000 81.7000 TC 30 22.4308 82.1940 1 8 288
1877192N21090 1877 16 NI BB NOT_NAMED 1877-07-13 21:00:00 TS 22.6274 81.5343 main 0 0 _________PP___ -1 22.6995 81.2872 TC 30 22.5553 81.7814 1 8 285
1877192N21090 1877 16 NI BB NOT_NAMED 1877-07-14 00:00:00 TS 22.7386 81.0641 main 0 0 _________OP___ -1 22.8000 80.8000 TC 30 22.6773 81.3283 1 10 284
1877192N21090 1877 16 NI BB NOT_NAMED 1877-07-14 03:00:00 TS 22.8750 80.4726 main 0 0 _________PO___ -1 22.9500 80.1451 TC 30 22.8000 80.8000 1 12 283
1877192N21090 1877 16 NI BB NOT_NAMED 1877-07-14 06:00:00 TS 23.0168 79.7791 main 0 0 _________OP___ -1 23.1000 79.4000 TC 30 22.9335 80.1583 1 13 281
1877192N21090 1877 16 NI BB NOT_NAMED 1877-07-14 09:00:00 TS 23.1363 79.0487 main 0 0 _________PP___ -1 23.2072 78.6573 TC 30 23.0654 79.4402 1 14 279
1877192N21090 1877 16 NI BB NOT_NAMED 1877-07-14 12:00:00 TS 23.2447 78.2885 main 0 0 _________OP___ -1 23.3000 77.9000 TC 30 23.1895 78.6770 1 14 279
1877192N21090 1877 16 NI AS NOT_NAMED 1877-07-14 15:00:00 TS 23.3536 77.5250 main 0 0 _________PO___ -1 23.4071 77.1500 TC 30 23.3000 77.9000 1 14 278
1877192N21090 1877 16 NI AS NOT_NAMED 1877-07-14 18:00:00 TS 23.4390 76.8199 main 0 0 _________OP___ -1 23.5000 76.4000 TC 30 23.3933 77.1348 1 13 277
1877192N21090 1877 16 NI AS NOT_NAMED 1877-07-14 21:00:00 TS 23.5074 76.0897 main 0 0 _________PP___ -1 23.5607 75.6500 TC 30 23.4719 76.3828 1 13 275
1877192N21090 1877 16 NI AS NOT_NAMED 1877-07-15 00:00:00 TS 23.5597 75.3929 main 0 0 _________OP___ -1 23.6000 74.9000 TC 30 23.5395 75.6394 1 11 275
1877192N21090 1877 16 NI AS NOT_NAMED 1877-07-15 03:00:00 NR 23.6000 74.9000 main 0 __________O___ -1 TC 23.6000 74.9000 1 9 275

IBTrACS Databaseについて

本データベースは、米国NOAAが公開する1842年以降の世界の熱帯低気圧のベストトラックデータアーカイブInternational Best Track Archive for Climate Stewardship (IBTrACS)を、ウェブで閲覧しやすい形式に変換したものです。

最終更新日:2021-10-08